createdAt,value
2017-06-09T00:00:29.379Z,0.00
2017-06-09T00:01:25.655Z,0.00
2017-06-09T00:02:21.919Z,0.00
2017-06-09T00:03:18.170Z,0.00
2017-06-09T00:04:14.434Z,0.00
2017-06-09T00:05:10.751Z,0.00
2017-06-09T00:06:07.014Z,0.00
2017-06-09T00:07:03.294Z,0.00
2017-06-09T00:07:59.551Z,0.00
2017-06-09T00:08:55.823Z,0.00
2017-06-09T00:09:52.095Z,0.00
2017-06-09T00:10:48.394Z,0.00
2017-06-09T00:11:44.651Z,0.00
2017-06-09T00:12:40.906Z,0.00
2017-06-09T00:13:37.178Z,0.00
2017-06-09T00:14:33.459Z,0.00
2017-06-09T00:15:29.711Z,0.00
2017-06-09T00:16:25.982Z,0.00
2017-06-09T00:17:22.247Z,0.00
2017-06-09T00:18:18.545Z,0.00
2017-06-09T00:19:14.807Z,0.00
2017-06-09T00:20:11.085Z,0.00
2017-06-09T00:21:07.602Z,0.00
2017-06-09T00:22:03.864Z,0.00
2017-06-09T00:23:00.123Z,0.00
2017-06-09T00:23:56.387Z,0.00
2017-06-09T00:24:52.664Z,0.00
2017-06-09T00:25:48.931Z,0.00
2017-06-09T00:26:45.218Z,0.00
2017-06-09T00:27:41.487Z,0.00
2017-06-09T00:28:37.738Z,0.00
2017-06-09T00:29:34.007Z,0.00
2017-06-09T00:30:30.271Z,0.00
2017-06-09T00:31:26.818Z,0.00
2017-06-09T00:32:23.106Z,0.00
2017-06-09T00:33:19.386Z,0.00
2017-06-09T00:34:15.693Z,0.00
2017-06-09T00:35:11.987Z,0.00
2017-06-09T00:36:09.187Z,0.00
2017-06-09T00:37:05.559Z,0.00
2017-06-09T00:38:02.164Z,0.00
2017-06-09T00:38:58.522Z,0.00
2017-06-09T00:39:54.780Z,0.00
2017-06-09T00:40:51.091Z,0.00
2017-06-09T00:41:47.660Z,0.00
2017-06-09T00:42:43.987Z,0.00
2017-06-09T00:43:40.271Z,0.00
2017-06-09T00:44:36.547Z,0.00
2017-06-09T00:45:32.868Z,0.00
2017-06-09T00:46:29.159Z,0.00
2017-06-09T00:47:25.682Z,0.00
2017-06-09T00:48:21.950Z,0.00
2017-06-09T00:49:19.042Z,0.00
2017-06-09T00:50:15.527Z,0.00
2017-06-09T00:51:12.031Z,0.00
2017-06-09T00:52:09.261Z,0.00
2017-06-09T00:53:05.554Z,0.00
2017-06-09T00:54:01.819Z,0.00
2017-06-09T00:54:58.484Z,0.00
2017-06-09T00:55:54.774Z,0.00
2017-06-09T00:56:51.059Z,0.00
2017-06-09T00:57:48.320Z,0.00
2017-06-09T00:58:44.759Z,0.00
2017-06-09T00:59:41.026Z,0.00
2017-06-09T01:00:38.596Z,0.00
2017-06-09T01:01:35.124Z,0.00
2017-06-09T01:02:31.449Z,0.00
2017-06-09T01:03:28.015Z,0.00
2017-06-09T01:04:24.347Z,0.00
2017-06-09T01:05:20.887Z,0.00
2017-06-09T01:06:17.841Z,0.00
2017-06-09T01:07:14.432Z,0.00
2017-06-09T01:08:11.016Z,0.00
2017-06-09T01:09:08.729Z,0.00
2017-06-09T01:10:05.564Z,0.00
2017-06-09T01:11:02.067Z,0.00
2017-06-09T01:11:58.736Z,0.00
2017-06-09T01:12:55.043Z,0.00
2017-06-09T01:13:51.332Z,0.00
2017-06-09T01:14:48.491Z,0.00
2017-06-09T01:15:45.696Z,0.00
2017-06-09T01:16:44.063Z,0.00
2017-06-09T01:17:42.335Z,0.00
2017-06-09T01:18:40.063Z,0.00
2017-06-09T01:19:36.461Z,0.00
2017-06-09T01:20:33.319Z,0.00
2017-06-09T01:21:30.419Z,0.00
2017-06-09T01:22:26.959Z,0.00
2017-06-09T01:23:23.732Z,0.00
2017-06-09T01:24:21.432Z,0.00
2017-06-09T01:25:17.835Z,0.00
2017-06-09T01:26:14.971Z,0.00
2017-06-09T01:27:12.467Z,0.00
2017-06-09T01:28:09.759Z,0.00
2017-06-09T01:29:06.248Z,0.00
2017-06-09T01:30:04.063Z,0.00
2017-06-09T01:31:01.419Z,0.00
2017-06-09T01:31:58.099Z,0.00
2017-06-09T01:32:55.287Z,0.00
2017-06-09T01:33:53.556Z,0.00
2017-06-09T01:34:51.805Z,0.00
2017-06-09T01:35:48.545Z,0.00
2017-06-09T01:36:46.113Z,0.00
2017-06-09T01:37:43.300Z,0.00
2017-06-09T01:38:41.477Z,0.00
2017-06-09T01:39:38.924Z,0.00
2017-06-09T01:41:40.752Z,0.00
2017-06-09T01:42:39.786Z,0.00
2017-06-09T01:43:43.333Z,0.00
2017-06-09T01:44:42.043Z,0.00
2017-06-09T01:45:40.381Z,0.00
2017-06-09T01:46:41.561Z,0.00
2017-06-09T01:47:44.081Z,0.00
2017-06-09T01:48:44.657Z,0.00
2017-06-09T01:49:43.525Z,0.00
2017-06-09T01:50:44.367Z,0.00
2017-06-09T01:51:44.231Z,0.00
2017-06-09T01:52:45.279Z,0.00
2017-06-09T01:53:43.156Z,0.00
2017-06-09T01:54:40.358Z,0.00
2017-06-09T01:55:41.371Z,0.00
2017-06-09T01:56:40.704Z,0.00
2017-06-09T01:57:39.194Z,0.00
2017-06-09T01:58:36.518Z,0.00
2017-06-09T01:59:34.762Z,0.00
2017-06-09T02:01:44.013Z,0.00
2017-06-09T02:02:45.049Z,0.00
2017-06-09T02:11:54.441Z,0.00
2017-06-09T02:12:52.646Z,0.00
2017-06-09T02:15:31.945Z,0.00
2017-06-09T02:16:30.981Z,0.00
2017-06-09T02:17:30.288Z,0.00
2017-06-09T02:19:31.617Z,0.00
2017-06-09T02:20:31.699Z,0.00
2017-06-09T02:21:32.494Z,0.00
2017-06-09T02:22:31.414Z,0.00
2017-06-09T02:23:32.153Z,0.00
2017-06-09T02:24:31.126Z,0.00
2017-06-09T02:25:32.160Z,0.00
2017-06-09T02:26:32.588Z,0.00
2017-06-09T02:27:30.880Z,0.00
2017-06-09T02:28:33.066Z,0.00
2017-06-09T02:29:36.991Z,0.00
2017-06-09T02:35:25.303Z,0.00
2017-06-09T02:36:22.905Z,0.00
2017-06-09T02:37:30.647Z,0.00
2017-06-09T02:38:28.493Z,0.00
2017-06-09T02:39:27.591Z,0.00
2017-06-09T02:40:24.114Z,0.00
2017-06-09T02:41:20.927Z,0.00
2017-06-09T02:42:17.351Z,0.00
2017-06-09T02:43:13.626Z,0.00
2017-06-09T02:44:09.887Z,0.00
2017-06-09T02:45:06.146Z,0.00
2017-06-09T02:46:02.415Z,0.00
2017-06-09T02:46:58.663Z,0.00
2017-06-09T02:47:54.894Z,0.00
2017-06-09T02:48:51.131Z,0.00
2017-06-09T02:49:47.374Z,0.00
2017-06-09T02:50:43.619Z,0.00
2017-06-09T02:51:39.887Z,0.00
2017-06-09T02:52:36.127Z,0.00
2017-06-09T02:53:32.371Z,0.00
2017-06-09T02:54:28.614Z,0.00
2017-06-09T02:55:24.859Z,0.00
2017-06-09T02:56:21.126Z,0.00
2017-06-09T02:57:17.374Z,1.00
2017-06-09T02:58:13.610Z,1.00
2017-06-09T02:59:09.850Z,1.00
2017-06-09T03:00:06.099Z,1.00
2017-06-09T03:01:02.347Z,1.00
2017-06-09T03:01:58.619Z,1.00
2017-06-09T03:02:54.855Z,1.00
2017-06-09T03:03:51.103Z,2.00
2017-06-09T03:04:47.343Z,2.00
2017-06-09T03:05:43.586Z,2.00
2017-06-09T03:06:39.822Z,3.00
2017-06-09T03:07:36.075Z,4.00
2017-06-09T03:08:32.320Z,4.00
2017-06-09T03:09:28.555Z,4.00
2017-06-09T03:10:24.783Z,5.00
2017-06-09T03:11:21.016Z,5.00
2017-06-09T03:12:17.267Z,6.00
2017-06-09T03:13:13.527Z,6.00
2017-06-09T03:14:09.767Z,6.00
2017-06-09T03:15:05.999Z,7.00
2017-06-09T03:16:02.243Z,7.00
2017-06-09T03:16:58.483Z,7.00
2017-06-09T03:17:54.743Z,8.00
2017-06-09T03:18:50.983Z,9.00
2017-06-09T03:19:47.219Z,10.00
2017-06-09T03:20:43.465Z,11.00
2017-06-09T03:21:39.698Z,11.00
2017-06-09T03:22:35.939Z,12.00
2017-06-09T03:23:32.202Z,13.00
2017-06-09T03:24:28.434Z,13.00
2017-06-09T03:25:24.671Z,14.00
2017-06-09T03:26:20.912Z,15.00
2017-06-09T03:27:17.154Z,16.00
2017-06-09T03:28:13.418Z,17.00
2017-06-09T03:29:09.723Z,18.00
2017-06-09T03:30:05.966Z,19.00
2017-06-09T03:31:02.209Z,20.00
2017-06-09T03:32:03.147Z,21.00
2017-06-09T03:33:04.095Z,22.00
2017-06-09T03:34:00.707Z,23.00
2017-06-09T03:34:56.956Z,24.00
2017-06-09T03:35:53.204Z,25.00
2017-06-09T03:36:49.447Z,26.00
2017-06-09T03:37:45.682Z,28.00
2017-06-09T03:38:41.931Z,29.00
2017-06-09T03:39:38.191Z,31.00
2017-06-09T03:40:34.435Z,32.00
2017-06-09T03:41:30.691Z,34.00
2017-06-09T03:42:26.959Z,35.00
2017-06-09T03:43:23.203Z,37.00
2017-06-09T03:44:19.443Z,39.00
2017-06-09T03:45:15.723Z,41.00
2017-06-09T03:46:11.979Z,43.00
2017-06-09T03:47:08.279Z,45.00
2017-06-09T03:48:04.536Z,47.00
2017-06-09T03:49:00.794Z,49.00
2017-06-09T03:49:57.043Z,51.00
2017-06-09T03:50:53.301Z,53.00
2017-06-09T03:51:49.558Z,55.00
2017-06-09T03:52:45.814Z,57.00
2017-06-09T03:53:42.072Z,59.00
2017-06-09T03:54:38.322Z,60.00
2017-06-09T03:55:34.591Z,62.00
2017-06-09T03:56:30.848Z,64.00
2017-06-09T03:57:27.082Z,66.00
2017-06-09T03:58:23.326Z,68.00
2017-06-09T03:59:19.570Z,70.00
2017-06-09T04:00:15.871Z,73.00
2017-06-09T04:01:12.131Z,74.00
2017-06-09T04:02:08.374Z,75.00
2017-06-09T04:03:04.635Z,76.00
2017-06-09T04:04:00.886Z,77.00
2017-06-09T04:04:57.167Z,77.00
2017-06-09T04:05:53.494Z,78.00
2017-06-09T04:06:49.787Z,79.00
2017-06-09T04:07:46.028Z,80.00
2017-06-09T04:08:42.288Z,81.00
2017-06-09T04:09:38.526Z,82.00
2017-06-09T04:10:34.860Z,84.00
2017-06-09T04:11:31.131Z,85.00
2017-06-09T04:12:27.375Z,87.00
2017-06-09T04:13:23.643Z,89.00
2017-06-09T04:14:19.915Z,91.00
2017-06-09T04:15:16.160Z,93.00
2017-06-09T04:16:12.407Z,95.00
2017-06-09T04:17:08.674Z,97.00
2017-06-09T04:18:04.927Z,99.00
2017-06-09T04:19:01.179Z,100.00
2017-06-09T04:19:57.426Z,101.00
2017-06-09T04:20:53.671Z,103.00
2017-06-09T04:21:49.919Z,105.00
2017-06-09T04:22:46.175Z,108.00
2017-06-09T04:23:42.424Z,108.00
2017-06-09T04:24:38.663Z,109.00
2017-06-09T04:25:34.922Z,110.00
2017-06-09T04:26:31.216Z,110.00
2017-06-09T04:27:27.526Z,111.00
2017-06-09T04:28:23.823Z,114.00
2017-06-09T04:29:20.119Z,117.00
2017-06-09T04:30:16.411Z,126.00
2017-06-09T04:31:12.702Z,128.00
2017-06-09T04:32:08.963Z,123.00
2017-06-09T04:33:05.228Z,119.00
2017-06-09T04:34:01.499Z,125.00
2017-06-09T04:34:57.927Z,125.00
2017-06-09T04:35:54.182Z,121.00
2017-06-09T04:36:50.427Z,121.00
2017-06-09T04:37:46.870Z,122.00
2017-06-09T04:38:43.600Z,116.00
2017-06-09T04:39:39.850Z,116.00
2017-06-09T04:40:36.087Z,116.00
2017-06-09T04:41:32.331Z,118.00
2017-06-09T04:42:28.571Z,120.00
2017-06-09T04:43:24.826Z,121.00
2017-06-09T04:44:21.058Z,119.00
2017-06-09T04:45:17.302Z,125.00
2017-06-09T04:46:13.541Z,126.00
2017-06-09T04:47:09.782Z,126.00
2017-06-09T04:48:06.038Z,134.00
2017-06-09T04:49:02.275Z,129.00
2017-06-09T04:49:58.519Z,123.00
2017-06-09T04:50:54.760Z,127.00
2017-06-09T04:51:51.066Z,127.00
2017-06-09T04:52:47.312Z,123.00
2017-06-09T04:53:43.627Z,120.00
2017-06-09T04:54:39.862Z,115.00
2017-06-09T04:55:36.087Z,116.00
2017-06-09T04:56:32.322Z,117.00
2017-06-09T04:57:28.559Z,117.00
2017-06-09T04:58:24.791Z,115.00
2017-06-09T04:59:21.035Z,116.00
2017-06-09T05:00:17.271Z,116.00
2017-06-09T05:01:13.576Z,117.00
2017-06-09T05:02:09.816Z,118.00
2017-06-09T05:03:06.051Z,116.00
2017-06-09T05:04:02.314Z,115.00
2017-06-09T05:04:58.550Z,113.00
2017-06-09T05:05:54.807Z,108.00
2017-06-09T05:06:51.043Z,104.00
2017-06-09T05:07:47.285Z,108.00
2017-06-09T05:08:43.535Z,114.00
2017-06-09T05:09:39.778Z,116.00
2017-06-09T05:10:36.018Z,112.00
2017-06-09T05:11:32.251Z,116.00
2017-06-09T05:12:28.495Z,118.00
2017-06-09T05:13:24.730Z,114.00
2017-06-09T05:14:20.975Z,108.00
2017-06-09T05:15:17.232Z,108.00
2017-06-09T05:16:13.468Z,101.00
2017-06-09T05:17:09.708Z,112.00
2017-06-09T05:18:05.943Z,112.00
2017-06-09T05:19:02.203Z,106.00
2017-06-09T05:19:58.454Z,105.00
2017-06-09T05:20:54.692Z,106.00
2017-06-09T05:21:55.660Z,107.00
2017-06-09T05:22:56.590Z,108.00
2017-06-09T05:23:57.530Z,109.00
2017-06-09T05:24:53.810Z,110.00
2017-06-09T05:25:53.659Z,110.00
2017-06-09T05:26:54.592Z,111.00
2017-06-09T05:27:55.583Z,111.00
2017-06-09T05:28:52.623Z,111.00
2017-06-09T05:29:48.914Z,113.00
2017-06-09T05:30:45.227Z,115.00
2017-06-09T05:31:45.342Z,113.00
2017-06-09T05:32:45.467Z,114.00
2017-06-09T05:33:46.416Z,116.00
2017-06-09T05:34:42.667Z,117.00
2017-06-09T05:35:38.903Z,119.00
2017-06-09T05:36:35.161Z,120.00
2017-06-09T05:37:31.435Z,120.00
2017-06-09T05:38:27.658Z,121.00
2017-06-09T05:39:23.894Z,123.00
2017-06-09T05:40:20.139Z,125.00
2017-06-09T05:41:16.431Z,128.00
2017-06-09T05:42:12.703Z,129.00
2017-06-09T05:43:08.955Z,127.00
2017-06-09T05:44:05.211Z,126.00
2017-06-09T05:45:01.455Z,125.00
2017-06-09T05:45:57.708Z,124.00
2017-06-09T05:46:53.967Z,126.00
2017-06-09T05:47:50.223Z,127.00
2017-06-09T05:48:46.488Z,130.00
2017-06-09T05:49:42.742Z,132.00
2017-06-09T05:50:38.979Z,135.00
2017-06-09T05:51:35.231Z,137.00
2017-06-09T05:52:31.499Z,145.00
2017-06-09T05:53:27.758Z,154.00
2017-06-09T05:54:23.996Z,149.00
2017-06-09T05:55:20.235Z,153.00
2017-06-09T05:56:16.483Z,158.00
2017-06-09T05:57:12.754Z,163.00
2017-06-09T05:58:09.003Z,168.00
2017-06-09T05:59:05.247Z,175.00
2017-06-09T06:00:01.492Z,186.00
2017-06-09T06:00:57.743Z,188.00
2017-06-09T06:01:53.999Z,196.00
2017-06-09T06:02:50.260Z,207.00
2017-06-09T06:03:46.519Z,216.00
2017-06-09T06:04:47.735Z,220.00
2017-06-09T06:05:43.986Z,230.00
2017-06-09T06:06:40.231Z,249.00
2017-06-09T06:07:36.471Z,299.00
2017-06-09T06:08:32.738Z,287.00
2017-06-09T06:09:28.990Z,274.00
2017-06-09T06:10:25.232Z,293.00
2017-06-09T06:11:21.470Z,316.00
2017-06-09T06:12:17.707Z,331.00
2017-06-09T06:13:13.979Z,346.00
2017-06-09T06:14:10.227Z,373.00
2017-06-09T06:15:06.521Z,354.00
2017-06-09T06:16:02.756Z,384.00
2017-06-09T06:16:59.005Z,378.00
2017-06-09T06:17:55.232Z,386.00
2017-06-09T06:18:51.559Z,391.00
2017-06-09T06:19:47.807Z,409.00
2017-06-09T06:20:44.055Z,420.00
2017-06-09T06:21:40.298Z,434.00
2017-06-09T06:22:36.548Z,449.00
2017-06-09T06:23:32.815Z,454.00
2017-06-09T06:24:29.055Z,456.00
2017-06-09T06:25:25.299Z,458.00
2017-06-09T06:26:21.538Z,460.00
2017-06-09T06:27:17.777Z,456.00
2017-06-09T06:28:14.023Z,462.00
2017-06-09T06:29:10.286Z,471.00
2017-06-09T06:30:06.522Z,473.00
2017-06-09T06:31:02.777Z,478.00
2017-06-09T06:31:59.022Z,482.00
2017-06-09T06:32:55.271Z,490.00
2017-06-09T06:33:51.574Z,495.00
2017-06-09T06:34:47.809Z,497.00
2017-06-09T06:35:44.047Z,497.00
2017-06-09T06:36:40.283Z,496.00
2017-06-09T06:37:36.527Z,495.00
2017-06-09T06:38:32.766Z,486.00
2017-06-09T06:39:29.036Z,486.00
2017-06-09T06:40:25.290Z,493.00
2017-06-09T06:41:22.360Z,491.00
2017-06-09T06:42:18.610Z,496.00
2017-06-09T06:43:14.847Z,502.00
2017-06-09T06:44:11.093Z,496.00
2017-06-09T06:45:07.352Z,494.00
2017-06-09T06:46:03.595Z,488.00
2017-06-09T06:46:59.847Z,490.00
2017-06-09T06:47:56.099Z,494.00
2017-06-09T06:48:52.390Z,493.00
2017-06-09T06:49:48.744Z,493.00
2017-06-09T06:50:45.023Z,492.00
2017-06-09T06:51:41.258Z,491.00
2017-06-09T06:52:37.507Z,491.00
2017-06-09T06:53:33.750Z,495.00
2017-06-09T06:54:29.994Z,499.00
2017-06-09T06:55:26.255Z,506.00
2017-06-09T06:56:22.502Z,514.00
2017-06-09T06:57:18.759Z,520.00
2017-06-09T06:58:14.995Z,528.00
2017-06-09T06:59:11.243Z,535.00
2017-06-09T07:00:07.523Z,538.00
2017-06-09T07:01:03.787Z,541.00
2017-06-09T07:02:00.023Z,542.00
2017-06-09T07:02:56.270Z,546.00
2017-06-09T07:03:52.523Z,548.00
2017-06-09T07:04:49.666Z,556.00
2017-06-09T07:05:45.939Z,557.00
2017-06-09T07:06:42.182Z,557.00
2017-06-09T07:07:38.423Z,562.00
2017-06-09T07:08:34.674Z,566.00
2017-06-09T07:09:30.919Z,572.00
2017-06-09T07:10:27.175Z,579.00
2017-06-09T07:11:23.467Z,584.00
2017-06-09T07:12:19.700Z,587.00
2017-06-09T07:13:16.002Z,587.00
2017-06-09T07:14:12.243Z,586.00
2017-06-09T07:15:08.491Z,586.00
2017-06-09T07:16:04.723Z,585.00
2017-06-09T07:17:00.983Z,583.00
2017-06-09T07:17:57.234Z,582.00
2017-06-09T07:18:53.483Z,583.00
2017-06-09T07:19:49.731Z,585.00
2017-06-09T07:20:45.962Z,586.00
2017-06-09T07:21:42.208Z,586.00
2017-06-09T07:22:38.478Z,585.00
2017-06-09T07:23:34.747Z,584.00
2017-06-09T07:24:30.982Z,584.00
2017-06-09T07:25:27.234Z,585.00
2017-06-09T07:26:23.484Z,587.00
2017-06-09T07:27:19.745Z,590.00
2017-06-09T07:28:15.983Z,589.00
2017-06-09T07:29:12.218Z,585.00
2017-06-09T07:30:08.503Z,580.00
2017-06-09T07:31:04.735Z,579.00
2017-06-09T07:32:00.974Z,579.00
2017-06-09T07:32:57.235Z,586.00
2017-06-09T07:33:53.466Z,592.00
2017-06-09T07:34:49.710Z,602.00
2017-06-09T07:35:45.950Z,613.00
2017-06-09T07:36:42.207Z,623.00
2017-06-09T07:37:38.443Z,631.00
2017-06-09T07:38:34.715Z,639.00
2017-06-09T07:39:30.967Z,644.00
2017-06-09T07:40:27.203Z,647.00
2017-06-09T07:41:23.459Z,647.00
2017-06-09T07:42:19.713Z,645.00
2017-06-09T07:43:15.954Z,646.00
2017-06-09T07:44:12.215Z,647.00
2017-06-09T07:45:13.147Z,644.00
2017-06-09T07:46:09.393Z,642.00
2017-06-09T07:47:05.643Z,639.00
2017-06-09T07:48:01.883Z,639.00
2017-06-09T07:48:58.153Z,648.00
2017-06-09T07:49:54.386Z,651.00
2017-06-09T07:50:50.631Z,652.00
2017-06-09T07:51:46.854Z,650.00
2017-06-09T07:52:43.074Z,646.00
2017-06-09T07:53:39.334Z,647.00
2017-06-09T07:54:35.608Z,648.00
2017-06-09T07:55:31.851Z,654.00
2017-06-09T07:56:28.092Z,660.00
2017-06-09T07:57:24.335Z,669.00
2017-06-09T07:58:20.578Z,682.00
2017-06-09T07:59:16.851Z,697.00
2017-06-09T08:00:13.086Z,714.00
2017-06-09T08:01:09.343Z,728.00
2017-06-09T08:02:05.612Z,738.00
2017-06-09T08:03:01.851Z,737.00
2017-06-09T08:03:58.091Z,734.00
2017-06-09T08:04:54.350Z,728.00
2017-06-09T08:05:50.590Z,728.00
2017-06-09T08:06:46.818Z,735.00
2017-06-09T08:07:43.054Z,744.00
2017-06-09T08:08:39.303Z,746.00
2017-06-09T08:09:35.542Z,743.00
2017-06-09T08:10:31.799Z,741.00
2017-06-09T08:11:28.031Z,740.00
2017-06-09T08:12:24.262Z,735.00
2017-06-09T08:13:20.503Z,735.00
2017-06-09T08:14:16.739Z,740.00
2017-06-09T08:15:12.987Z,742.00
2017-06-09T08:16:09.242Z,748.00
2017-06-09T08:17:05.486Z,757.00
2017-06-09T08:18:01.735Z,759.00
2017-06-09T08:18:57.978Z,750.00
2017-06-09T08:19:54.215Z,735.00
2017-06-09T08:20:50.468Z,720.00
2017-06-09T08:21:46.711Z,710.00
2017-06-09T08:22:42.954Z,704.00
2017-06-09T08:23:39.184Z,705.00
2017-06-09T08:24:35.438Z,696.00
2017-06-09T08:25:31.710Z,698.00
2017-06-09T08:26:27.958Z,705.00
2017-06-09T08:27:24.190Z,724.00
2017-06-09T08:28:20.416Z,713.00
2017-06-09T08:29:16.658Z,651.00
2017-06-09T08:30:12.887Z,618.00
2017-06-09T08:31:09.135Z,587.00
2017-06-09T08:32:05.379Z,574.00
2017-06-09T08:33:01.628Z,575.00
2017-06-09T08:33:57.875Z,588.00
2017-06-09T08:34:54.114Z,619.00
2017-06-09T08:35:50.359Z,659.00
2017-06-09T08:36:46.626Z,717.00
2017-06-09T08:37:42.852Z,814.00
2017-06-09T08:38:39.087Z,870.00
2017-06-09T08:39:35.326Z,1096.00
2017-06-09T08:40:31.575Z,1368.00
2017-06-09T08:41:27.815Z,1337.00
2017-06-09T08:42:24.083Z,1212.00
2017-06-09T08:43:20.327Z,1024.00
2017-06-09T08:44:16.558Z,988.00
2017-06-09T08:45:12.811Z,890.00
2017-06-09T08:46:09.054Z,853.00
2017-06-09T08:47:05.287Z,902.00
2017-06-09T08:48:01.547Z,1312.00
2017-06-09T08:48:57.770Z,1280.00
2017-06-09T08:49:54.008Z,1149.00
2017-06-09T08:50:50.247Z,1065.00
2017-06-09T08:51:46.483Z,1208.00
2017-06-09T08:52:42.798Z,1407.00
2017-06-09T08:53:39.018Z,1729.00
2017-06-09T08:54:35.254Z,1378.00
2017-06-09T08:55:31.493Z,1240.00
2017-06-09T08:56:27.731Z,1346.00
2017-06-09T08:57:23.958Z,1429.00
2017-06-09T08:58:20.214Z,1369.00
2017-06-09T08:59:16.489Z,1425.00
2017-06-09T09:00:12.691Z,1228.00
2017-06-09T09:01:08.935Z,1197.00
2017-06-09T09:02:05.171Z,978.00
2017-06-09T09:03:01.426Z,954.00
2017-06-09T09:03:57.666Z,899.00
2017-06-09T09:04:53.911Z,894.00
2017-06-09T09:05:50.147Z,879.00
2017-06-09T09:06:46.383Z,928.00
2017-06-09T09:07:42.622Z,1058.00
2017-06-09T09:08:38.870Z,1158.00
2017-06-09T09:09:35.099Z,1212.00
2017-06-09T09:10:31.355Z,1275.00
2017-06-09T09:11:27.628Z,1360.00
2017-06-09T09:12:23.874Z,1416.00
2017-06-09T09:13:20.115Z,1507.00
2017-06-09T09:14:16.363Z,1547.00
2017-06-09T09:15:12.602Z,1411.00
2017-06-09T09:16:08.839Z,1274.00
2017-06-09T09:17:05.086Z,1284.00
2017-06-09T09:18:01.336Z,1196.00
2017-06-09T09:18:57.575Z,1052.00
2017-06-09T09:19:53.816Z,1121.00
2017-06-09T09:20:50.062Z,1417.00
2017-06-09T09:21:46.307Z,1680.00
2017-06-09T09:22:42.572Z,2055.00
2017-06-09T09:23:38.819Z,1765.00
2017-06-09T09:24:35.063Z,1566.00
2017-06-09T09:25:31.324Z,1219.00
2017-06-09T09:26:27.555Z,1053.00
2017-06-09T09:27:23.791Z,1105.00
2017-06-09T09:28:20.047Z,1051.00
2017-06-09T09:29:16.287Z,1218.00
2017-06-09T09:30:12.539Z,988.00
2017-06-09T09:31:08.777Z,909.00
2017-06-09T09:32:05.011Z,920.00
2017-06-09T09:33:01.247Z,1108.00
2017-06-09T09:33:57.490Z,1129.00
2017-06-09T09:34:55.014Z,1265.00
2017-06-09T09:35:51.339Z,1447.00
2017-06-09T09:36:47.579Z,1299.00
2017-06-09T09:37:43.875Z,1437.00
2017-06-09T09:38:40.115Z,1253.00
2017-06-09T09:39:36.393Z,1687.00
2017-06-09T09:40:32.634Z,1679.00
2017-06-09T09:41:28.899Z,2019.00
2017-06-09T09:42:25.157Z,1958.00
2017-06-09T09:43:21.392Z,1406.00
2017-06-09T09:44:17.635Z,1712.00
2017-06-09T09:45:13.895Z,1912.00
2017-06-09T09:46:10.126Z,1870.00
2017-06-09T09:47:06.395Z,1490.00
2017-06-09T09:48:02.651Z,1099.00
2017-06-09T09:48:58.907Z,1379.00
2017-06-09T09:49:55.164Z,1217.00
2017-06-09T09:50:51.432Z,962.00
2017-06-09T09:51:47.687Z,1238.00
2017-06-09T09:52:43.960Z,1211.00
2017-06-09T09:53:40.210Z,1329.00
2017-06-09T09:54:36.472Z,1380.00
2017-06-09T09:55:32.703Z,1415.00
2017-06-09T09:56:28.947Z,1237.00
2017-06-09T09:57:25.215Z,1077.00
2017-06-09T09:58:21.463Z,978.00
2017-06-09T09:59:17.698Z,942.00
2017-06-09T10:00:13.934Z,1137.00
2017-06-09T10:01:10.171Z,928.00
2017-06-09T10:02:06.415Z,887.00
2017-06-09T10:03:02.700Z,877.00
2017-06-09T10:03:58.951Z,895.00
2017-06-09T10:04:55.190Z,861.00
2017-06-09T10:05:51.426Z,816.00
2017-06-09T10:06:47.670Z,794.00
2017-06-09T10:07:43.915Z,797.00
2017-06-09T10:08:40.167Z,780.00
2017-06-09T10:09:36.410Z,764.00
2017-06-09T10:10:32.659Z,737.00
2017-06-09T10:11:28.899Z,709.00
2017-06-09T10:12:25.139Z,682.00
2017-06-09T10:13:21.381Z,671.00
2017-06-09T10:14:17.642Z,712.00
2017-06-09T10:15:13.872Z,763.00
2017-06-09T10:16:10.112Z,803.00
2017-06-09T10:17:06.358Z,866.00
2017-06-09T10:18:02.600Z,868.00
2017-06-09T10:18:58.894Z,927.00
2017-06-09T10:19:55.139Z,1013.00
2017-06-09T10:20:51.383Z,986.00
2017-06-09T10:21:47.647Z,925.00
2017-06-09T10:22:43.902Z,883.00
2017-06-09T10:23:40.174Z,900.00
2017-06-09T10:24:36.435Z,906.00
2017-06-09T10:25:32.694Z,939.00
2017-06-09T10:26:28.944Z,893.00
2017-06-09T10:27:25.183Z,871.00
2017-06-09T10:28:21.419Z,848.00
2017-06-09T10:29:17.698Z,819.00
2017-06-09T10:30:13.947Z,771.00
2017-06-09T10:31:10.203Z,746.00
2017-06-09T10:32:06.442Z,749.00
2017-06-09T10:33:02.708Z,732.00
2017-06-09T10:33:58.967Z,727.00
2017-06-09T10:34:55.238Z,746.00
2017-06-09T10:35:51.479Z,752.00
2017-06-09T10:36:47.727Z,733.00
2017-06-09T10:37:43.982Z,711.00
2017-06-09T10:38:40.251Z,721.00
2017-06-09T10:39:36.496Z,772.00
2017-06-09T10:40:32.750Z,762.00
2017-06-09T10:41:28.989Z,680.00
2017-06-09T10:42:25.227Z,616.00
2017-06-09T10:43:21.470Z,607.00
2017-06-09T10:44:17.717Z,608.00
2017-06-09T10:45:13.971Z,582.00
2017-06-09T10:46:10.227Z,560.00
2017-06-09T10:47:06.475Z,561.00
2017-06-09T10:48:02.718Z,553.00
2017-06-09T10:48:58.964Z,562.00
2017-06-09T10:49:55.204Z,608.00
2017-06-09T10:50:51.472Z,665.00
2017-06-09T10:51:47.719Z,704.00
2017-06-09T10:52:43.967Z,712.00
2017-06-09T10:53:40.219Z,710.00
2017-06-09T10:54:36.442Z,696.00
2017-06-09T10:55:32.691Z,685.00
2017-06-09T10:56:28.948Z,658.00
2017-06-09T10:57:25.193Z,584.00
2017-06-09T10:58:21.438Z,521.00
2017-06-09T10:59:17.699Z,490.00
2017-06-09T11:00:13.931Z,428.00
2017-06-09T11:01:10.175Z,404.00
2017-06-09T11:02:06.439Z,423.00
2017-06-09T11:03:02.672Z,453.00
2017-06-09T11:03:58.902Z,498.00
2017-06-09T11:04:55.140Z,556.00
2017-06-09T11:05:51.392Z,578.00
2017-06-09T11:06:47.636Z,584.00
2017-06-09T11:07:43.892Z,616.00
2017-06-09T11:08:40.131Z,651.00
2017-06-09T11:09:36.367Z,627.00
2017-06-09T11:10:32.616Z,510.00
2017-06-09T11:11:28.854Z,380.00
2017-06-09T11:12:25.124Z,295.00
2017-06-09T11:13:21.362Z,256.00
2017-06-09T11:14:17.599Z,246.00
2017-06-09T11:15:13.844Z,249.00
2017-06-09T11:16:10.086Z,254.00
2017-06-09T11:17:06.335Z,247.00
2017-06-09T11:18:02.586Z,229.00
2017-06-09T11:18:59.239Z,215.00
2017-06-09T11:19:55.471Z,201.00
2017-06-09T11:20:51.711Z,198.00
2017-06-09T11:21:47.951Z,205.00
2017-06-09T11:22:44.206Z,214.00
2017-06-09T11:23:40.451Z,219.00
2017-06-09T11:24:36.691Z,220.00
2017-06-09T11:25:32.935Z,220.00
2017-06-09T11:26:29.163Z,212.00
2017-06-09T11:27:25.403Z,221.00
2017-06-09T11:28:21.643Z,267.00
2017-06-09T11:29:17.875Z,319.00
2017-06-09T11:30:14.119Z,343.00
2017-06-09T11:31:10.356Z,339.00
2017-06-09T11:32:06.590Z,327.00
2017-06-09T11:33:02.822Z,321.00
2017-06-09T11:33:59.090Z,319.00
2017-06-09T11:34:55.330Z,323.00
2017-06-09T11:35:51.567Z,329.00
2017-06-09T11:36:47.798Z,335.00
2017-06-09T11:37:44.066Z,346.00
2017-06-09T11:38:40.310Z,356.00
2017-06-09T11:39:36.642Z,368.00
2017-06-09T11:40:32.879Z,380.00
2017-06-09T11:41:29.119Z,398.00
2017-06-09T11:42:25.367Z,433.00
2017-06-09T11:43:21.602Z,475.00
2017-06-09T11:44:17.846Z,515.00
2017-06-09T11:45:14.091Z,543.00
2017-06-09T11:46:10.330Z,566.00
2017-06-09T11:47:06.559Z,582.00
2017-06-09T11:48:02.794Z,586.00
2017-06-09T11:48:59.038Z,592.00
2017-06-09T11:49:55.279Z,601.00
2017-06-09T11:50:51.531Z,614.00
2017-06-09T11:51:47.767Z,632.00
2017-06-09T11:52:44.015Z,659.00
2017-06-09T11:53:40.250Z,690.00
2017-06-09T11:54:36.491Z,722.00
2017-06-09T11:55:32.747Z,756.00
2017-06-09T11:56:28.986Z,787.00
2017-06-09T11:57:25.227Z,812.00
2017-06-09T11:58:21.462Z,825.00
2017-06-09T11:59:17.735Z,833.00
2017-06-09T12:00:13.974Z,844.00
2017-06-09T12:01:10.244Z,860.00
2017-06-09T12:02:06.475Z,883.00
2017-06-09T12:03:02.698Z,895.00
2017-06-09T12:03:58.931Z,902.00
2017-06-09T12:04:55.163Z,911.00
2017-06-09T12:05:51.469Z,916.00
2017-06-09T12:06:47.753Z,918.00
2017-06-09T12:07:44.026Z,910.00
2017-06-09T12:08:45.240Z,910.00
2017-06-09T12:09:41.815Z,905.00
2017-06-09T12:10:38.088Z,904.00
2017-06-09T12:11:34.327Z,906.00
2017-06-09T12:12:30.612Z,910.00
2017-06-09T12:13:26.866Z,912.00
2017-06-09T12:14:23.103Z,920.00
2017-06-09T12:15:19.342Z,889.00